sensor_id;sensor_type;location;lat;lon;timestamp;P1;durP1;ratioP1;P2;durP2;ratioP2
23578;SDS011;11967;50.852;4.400;2023-05-07T00:00:46;11.18;;;4.10;;
23578;SDS011;11967;50.852;4.400;2023-05-07T00:03:13;12.07;;;3.85;;
23578;SDS011;11967;50.852;4.400;2023-05-07T00:05:39;9.70;;;3.40;;
23578;SDS011;11967;50.852;4.400;2023-05-07T00:08:06;10.25;;;4.00;;
23578;SDS011;11967;50.852;4.400;2023-05-07T00:10:32;10.77;;;4.15;;
23578;SDS011;11967;50.852;4.400;2023-05-07T00:12:58;12.27;;;3.80;;
23578;SDS011;11967;50.852;4.400;2023-05-07T00:15:24;15.75;;;4.18;;
23578;SDS011;11967;50.852;4.400;2023-05-07T00:17:49;10.85;;;4.38;;
23578;SDS011;11967;50.852;4.400;2023-05-07T00:20:15;11.20;;;3.97;;
23578;SDS011;11967;50.852;4.400;2023-05-07T00:22:41;7.30;;;3.70;;
23578;SDS011;11967;50.852;4.400;2023-05-07T00:25:07;9.10;;;3.70;;
23578;SDS011;11967;50.852;4.400;2023-05-07T00:27:33;10.10;;;4.13;;
23578;SDS011;11967;50.852;4.400;2023-05-07T00:30:00;14.68;;;3.90;;
23578;SDS011;11967;50.852;4.400;2023-05-07T00:32:25;10.35;;;3.83;;
23578;SDS011;11967;50.852;4.400;2023-05-07T00:34:51;10.93;;;4.25;;
23578;SDS011;11967;50.852;4.400;2023-05-07T00:37:17;12.05;;;3.85;;
23578;SDS011;11967;50.852;4.400;2023-05-07T00:39:42;9.90;;;3.70;;
23578;SDS011;11967;50.852;4.400;2023-05-07T00:42:08;10.52;;;4.10;;
23578;SDS011;11967;50.852;4.400;2023-05-07T00:44:34;12.00;;;3.97;;
23578;SDS011;11967;50.852;4.400;2023-05-07T00:47:00;11.25;;;3.85;;
23578;SDS011;11967;50.852;4.400;2023-05-07T00:49:42;10.50;;;3.92;;
23578;SDS011;11967;50.852;4.400;2023-05-07T00:52:12;10.13;;;4.00;;
23578;SDS011;11967;50.852;4.400;2023-05-07T00:54:41;11.57;;;3.80;;
23578;SDS011;11967;50.852;4.400;2023-05-07T00:57:06;11.07;;;3.70;;
23578;SDS011;11967;50.852;4.400;2023-05-07T00:59:36;8.75;;;3.65;;
23578;SDS011;11967;50.852;4.400;2023-05-07T01:02:01;9.77;;;3.70;;
23578;SDS011;11967;50.852;4.400;2023-05-07T01:04:27;8.55;;;3.38;;
23578;SDS011;11967;50.852;4.400;2023-05-07T01:06:57;10.65;;;3.15;;
23578;SDS011;11967;50.852;4.400;2023-05-07T01:09:24;11.65;;;3.78;;
23578;SDS011;11967;50.852;4.400;2023-05-07T01:11:51;13.52;;;3.90;;
23578;SDS011;11967;50.852;4.400;2023-05-07T01:14:18;9.15;;;3.60;;
23578;SDS011;11967;50.852;4.400;2023-05-07T01:16:45;9.05;;;3.30;;
23578;SDS011;11967;50.852;4.400;2023-05-07T01:19:11;8.90;;;3.53;;
23578;SDS011;11967;50.852;4.400;2023-05-07T01:21:42;10.05;;;3.25;;
23578;SDS011;11967;50.852;4.400;2023-05-07T01:24:11;15.82;;;3.60;;
23578;SDS011;11967;50.852;4.400;2023-05-07T01:26:37;9.20;;;3.55;;
23578;SDS011;11967;50.852;4.400;2023-05-07T01:29:04;11.40;;;3.47;;
23578;SDS011;11967;50.852;4.400;2023-05-07T01:31:29;11.85;;;3.72;;
23578;SDS011;11967;50.852;4.400;2023-05-07T01:33:55;8.13;;;3.50;;
23578;SDS011;11967;50.852;4.400;2023-05-07T01:36:23;10.95;;;3.42;;
23578;SDS011;11967;50.852;4.400;2023-05-07T01:38:52;12.10;;;3.67;;
23578;SDS011;11967;50.852;4.400;2023-05-07T01:41:18;11.13;;;3.20;;
23578;SDS011;11967;50.852;4.400;2023-05-07T01:43:44;10.45;;;3.80;;
23578;SDS011;11967;50.852;4.400;2023-05-07T01:46:12;9.30;;;3.50;;
23578;SDS011;11967;50.852;4.400;2023-05-07T01:48:40;11.18;;;3.72;;
23578;SDS011;11967;50.852;4.400;2023-05-07T01:51:06;9.50;;;3.45;;
23578;SDS011;11967;50.852;4.400;2023-05-07T01:53:37;11.02;;;3.83;;
23578;SDS011;11967;50.852;4.400;2023-05-07T01:56:04;7.93;;;3.53;;
23578;SDS011;11967;50.852;4.400;2023-05-07T01:58:30;11.07;;;3.75;;
23578;SDS011;11967;50.852;4.400;2023-05-07T02:00:56;10.68;;;3.70;;
23578;SDS011;11967;50.852;4.400;2023-05-07T02:03:21;10.73;;;3.55;;
23578;SDS011;11967;50.852;4.400;2023-05-07T02:05:47;10.35;;;3.70;;
23578;SDS011;11967;50.852;4.400;2023-05-07T02:08:13;11.00;;;3.65;;
23578;SDS011;11967;50.852;4.400;2023-05-07T02:10:38;17.85;;;3.88;;
23578;SDS011;11967;50.852;4.400;2023-05-07T02:13:04;12.48;;;3.78;;
23578;SDS011;11967;50.852;4.400;2023-05-07T02:15:30;12.55;;;3.85;;
23578;SDS011;11967;50.852;4.400;2023-05-07T02:18:02;11.52;;;3.47;;
23578;SDS011;11967;50.852;4.400;2023-05-07T02:20:32;12.18;;;4.10;;
23578;SDS011;11967;50.852;4.400;2023-05-07T02:22:58;14.20;;;3.80;;
23578;SDS011;11967;50.852;4.400;2023-05-07T02:25:24;14.90;;;4.53;;
23578;SDS011;11967;50.852;4.400;2023-05-07T02:27:51;11.30;;;4.00;;
23578;SDS011;11967;50.852;4.400;2023-05-07T02:30:16;10.25;;;4.00;;
23578;SDS011;11967;50.852;4.400;2023-05-07T02:32:42;12.75;;;3.83;;
23578;SDS011;11967;50.852;4.400;2023-05-07T02:35:08;13.95;;;4.07;;
23578;SDS011;11967;50.852;4.400;2023-05-07T02:37:35;9.15;;;3.67;;
23578;SDS011;11967;50.852;4.400;2023-05-07T02:40:01;10.30;;;3.85;;
23578;SDS011;11967;50.852;4.400;2023-05-07T02:42:30;11.48;;;4.13;;
23578;SDS011;11967;50.852;4.400;2023-05-07T02:44:56;15.52;;;3.97;;
23578;SDS011;11967;50.852;4.400;2023-05-07T02:47:21;12.15;;;3.90;;
23578;SDS011;11967;50.852;4.400;2023-05-07T02:49:47;13.15;;;4.07;;
23578;SDS011;11967;50.852;4.400;2023-05-07T02:52:14;14.30;;;4.32;;
23578;SDS011;11967;50.852;4.400;2023-05-07T02:54:39;15.82;;;4.43;;
23578;SDS011;11967;50.852;4.400;2023-05-07T02:57:05;11.95;;;4.47;;
23578;SDS011;11967;50.852;4.400;2023-05-07T02:59:31;11.02;;;3.55;;
23578;SDS011;11967;50.852;4.400;2023-05-07T03:01:57;10.05;;;3.83;;
23578;SDS011;11967;50.852;4.400;2023-05-07T03:04:23;14.50;;;4.47;;
23578;SDS011;11967;50.852;4.400;2023-05-07T03:06:49;13.73;;;4.00;;
23578;SDS011;11967;50.852;4.400;2023-05-07T03:09:14;12.25;;;4.20;;
23578;SDS011;11967;50.852;4.400;2023-05-07T03:11:41;12.25;;;4.32;;
23578;SDS011;11967;50.852;4.400;2023-05-07T03:14:07;15.63;;;4.20;;
23578;SDS011;11967;50.852;4.400;2023-05-07T03:16:32;11.52;;;4.30;;
23578;SDS011;11967;50.852;4.400;2023-05-07T03:18:58;13.80;;;4.18;;
23578;SDS011;11967;50.852;4.400;2023-05-07T03:21:24;11.27;;;4.10;;
23578;SDS011;11967;50.852;4.400;2023-05-07T03:23:51;13.30;;;4.32;;
23578;SDS011;11967;50.852;4.400;2023-05-07T03:26:17;14.75;;;4.40;;
23578;SDS011;11967;50.852;4.400;2023-05-07T03:28:42;11.10;;;3.90;;
23578;SDS011;11967;50.852;4.400;2023-05-07T03:31:09;12.00;;;3.80;;
23578;SDS011;11967;50.852;4.400;2023-05-07T03:33:38;11.50;;;4.00;;
23578;SDS011;11967;50.852;4.400;2023-05-07T03:36:14;11.45;;;4.03;;
23578;SDS011;11967;50.852;4.400;2023-05-07T03:38:40;11.43;;;4.32;;
23578;SDS011;11967;50.852;4.400;2023-05-07T03:41:05;13.23;;;4.28;;
23578;SDS011;11967;50.852;4.400;2023-05-07T03:43:32;13.77;;;4.55;;
23578;SDS011;11967;50.852;4.400;2023-05-07T03:45:58;12.32;;;4.70;;
23578;SDS011;11967;50.852;4.400;2023-05-07T03:48:23;11.32;;;4.38;;
23578;SDS011;11967;50.852;4.400;2023-05-07T03:50:51;16.25;;;4.55;;
23578;SDS011;11967;50.852;4.400;2023-05-07T03:53:17;13.50;;;4.45;;
23578;SDS011;11967;50.852;4.400;2023-05-07T03:55:43;13.75;;;4.43;;
23578;SDS011;11967;50.852;4.400;2023-05-07T03:58:08;11.38;;;4.28;;
23578;SDS011;11967;50.852;4.400;2023-05-07T04:00:34;15.05;;;4.53;;
23578;SDS011;11967;50.852;4.400;2023-05-07T04:03:04;12.20;;;4.10;;
23578;SDS011;11967;50.852;4.400;2023-05-07T04:05:30;10.95;;;4.07;;
23578;SDS011;11967;50.852;4.400;2023-05-07T04:07:57;16.60;;;4.47;;
23578;SDS011;11967;50.852;4.400;2023-05-07T04:10:24;11.60;;;4.28;;
23578;SDS011;11967;50.852;4.400;2023-05-07T04:12:50;10.75;;;4.18;;
23578;SDS011;11967;50.852;4.400;2023-05-07T04:15:16;11.93;;;3.75;;
23578;SDS011;11967;50.852;4.400;2023-05-07T04:17:42;12.20;;;4.07;;
23578;SDS011;11967;50.852;4.400;2023-05-07T04:20:15;8.60;;;3.75;;
23578;SDS011;11967;50.852;4.400;2023-05-07T04:22:42;11.10;;;3.80;;
23578;SDS011;11967;50.852;4.400;2023-05-07T04:25:08;11.18;;;4.25;;
23578;SDS011;11967;50.852;4.400;2023-05-07T04:27:35;11.13;;;4.20;;
23578;SDS011;11967;50.852;4.400;2023-05-07T04:30:02;12.82;;;4.07;;
23578;SDS011;11967;50.852;4.400;2023-05-07T04:32:28;10.75;;;4.30;;
23578;SDS011;11967;50.852;4.400;2023-05-07T04:34:57;17.15;;;4.72;;
23578;SDS011;11967;50.852;4.400;2023-05-07T04:37:23;11.68;;;3.70;;
23578;SDS011;11967;50.852;4.400;2023-05-07T04:39:50;12.80;;;3.70;;
23578;SDS011;11967;50.852;4.400;2023-05-07T04:42:16;12.45;;;3.42;;
23578;SDS011;11967;50.852;4.400;2023-05-07T04:44:43;14.00;;;3.90;;
23578;SDS011;11967;50.852;4.400;2023-05-07T04:47:10;10.95;;;3.45;;
23578;SDS011;11967;50.852;4.400;2023-05-07T04:49:36;10.35;;;4.05;;
23578;SDS011;11967;50.852;4.400;2023-05-07T04:52:03;11.90;;;3.75;;
23578;SDS011;11967;50.852;4.400;2023-05-07T04:54:29;13.93;;;4.25;;
23578;SDS011;11967;50.852;4.400;2023-05-07T04:56:55;11.57;;;3.75;;
23578;SDS011;11967;50.852;4.400;2023-05-07T04:59:21;9.77;;;3.58;;
23578;SDS011;11967;50.852;4.400;2023-05-07T05:01:46;14.13;;;3.75;;
23578;SDS011;11967;50.852;4.400;2023-05-07T05:04:12;13.30;;;3.67;;
23578;SDS011;11967;50.852;4.400;2023-05-07T05:06:38;9.73;;;3.28;;
23578;SDS011;11967;50.852;4.400;2023-05-07T05:09:04;12.38;;;3.92;;
23578;SDS011;11967;50.852;4.400;2023-05-07T05:11:30;10.38;;;3.55;;
23578;SDS011;11967;50.852;4.400;2023-05-07T05:13:56;8.02;;;3.72;;
23578;SDS011;11967;50.852;4.400;2023-05-07T05:16:22;10.73;;;3.85;;
23578;SDS011;11967;50.852;4.400;2023-05-07T05:18:48;11.35;;;3.92;;
23578;SDS011;11967;50.852;4.400;2023-05-07T05:21:13;13.38;;;3.67;;
23578;SDS011;11967;50.852;4.400;2023-05-07T05:23:39;10.10;;;3.50;;
23578;SDS011;11967;50.852;4.400;2023-05-07T05:26:05;8.18;;;3.08;;
23578;SDS011;11967;50.852;4.400;2023-05-07T05:28:30;11.63;;;3.85;;
23578;SDS011;11967;50.852;4.400;2023-05-07T05:30:56;12.60;;;3.72;;
23578;SDS011;11967;50.852;4.400;2023-05-07T05:33:22;12.13;;;3.28;;
23578;SDS011;11967;50.852;4.400;2023-05-07T05:35:47;10.10;;;3.72;;
23578;SDS011;11967;50.852;4.400;2023-05-07T05:38:14;9.63;;;3.60;;
23578;SDS011;11967;50.852;4.400;2023-05-07T05:40:41;11.57;;;3.13;;
23578;SDS011;11967;50.852;4.400;2023-05-07T05:43:06;8.57;;;3.00;;
23578;SDS011;11967;50.852;4.400;2023-05-07T05:45:32;9.23;;;2.72;;
23578;SDS011;11967;50.852;4.400;2023-05-07T05:47:58;9.52;;;2.90;;
23578;SDS011;11967;50.852;4.400;2023-05-07T05:50:23;12.43;;;3.50;;
23578;SDS011;11967;50.852;4.400;2023-05-07T05:52:50;10.02;;;3.40;;
23578;SDS011;11967;50.852;4.400;2023-05-07T05:55:16;11.52;;;3.35;;
23578;SDS011;11967;50.852;4.400;2023-05-07T05:57:43;11.40;;;3.28;;
23578;SDS011;11967;50.852;4.400;2023-05-07T06:00:09;10.43;;;3.65;;
23578;SDS011;11967;50.852;4.400;2023-05-07T06:02:35;11.52;;;3.65;;
23578;SDS011;11967;50.852;4.400;2023-05-07T06:05:00;11.98;;;4.10;;
23578;SDS011;11967;50.852;4.400;2023-05-07T06:07:26;14.80;;;4.97;;
23578;SDS011;11967;50.852;4.400;2023-05-07T06:09:51;15.48;;;5.07;;
23578;SDS011;11967;50.852;4.400;2023-05-07T06:12:18;11.77;;;4.38;;
23578;SDS011;11967;50.852;4.400;2023-05-07T06:14:44;14.45;;;4.68;;
23578;SDS011;11967;50.852;4.400;2023-05-07T06:17:09;16.00;;;5.03;;
23578;SDS011;11967;50.852;4.400;2023-05-07T06:19:35;13.38;;;4.32;;
23578;SDS011;11967;50.852;4.400;2023-05-07T06:22:01;9.88;;;4.43;;
23578;SDS011;11967;50.852;4.400;2023-05-07T06:24:27;12.82;;;4.47;;
23578;SDS011;11967;50.852;4.400;2023-05-07T06:26:53;12.25;;;4.45;;
23578;SDS011;11967;50.852;4.400;2023-05-07T06:29:18;10.65;;;4.10;;
23578;SDS011;11967;50.852;4.400;2023-05-07T06:31:44;15.10;;;4.65;;
23578;SDS011;11967;50.852;4.400;2023-05-07T06:34:10;12.63;;;3.97;;
23578;SDS011;11967;50.852;4.400;2023-05-07T06:36:39;9.63;;;4.18;;
23578;SDS011;11967;50.852;4.400;2023-05-07T06:39:05;10.20;;;4.00;;
23578;SDS011;11967;50.852;4.400;2023-05-07T06:41:31;12.68;;;4.25;;
23578;SDS011;11967;50.852;4.400;2023-05-07T06:43:57;11.23;;;3.88;;
23578;SDS011;11967;50.852;4.400;2023-05-07T06:46:23;10.40;;;4.05;;
23578;SDS011;11967;50.852;4.400;2023-05-07T06:48:48;10.48;;;3.60;;
23578;SDS011;11967;50.852;4.400;2023-05-07T06:51:14;11.40;;;4.22;;
23578;SDS011;11967;50.852;4.400;2023-05-07T06:53:40;10.48;;;4.00;;
23578;SDS011;11967;50.852;4.400;2023-05-07T06:56:05;10.63;;;3.58;;
23578;SDS011;11967;50.852;4.400;2023-05-07T06:58:31;11.07;;;3.90;;
23578;SDS011;11967;50.852;4.400;2023-05-07T07:00:57;9.27;;;4.00;;
23578;SDS011;11967;50.852;4.400;2023-05-07T07:03:22;9.48;;;3.58;;
23578;SDS011;11967;50.852;4.400;2023-05-07T07:05:51;8.75;;;3.63;;
23578;SDS011;11967;50.852;4.400;2023-05-07T07:08:17;11.55;;;4.18;;
23578;SDS011;11967;50.852;4.400;2023-05-07T07:10:43;11.82;;;3.90;;
23578;SDS011;11967;50.852;4.400;2023-05-07T07:13:09;11.32;;;3.97;;
23578;SDS011;11967;50.852;4.400;2023-05-07T07:15:34;9.45;;;3.60;;
23578;SDS011;11967;50.852;4.400;2023-05-07T07:18:00;10.60;;;4.22;;
23578;SDS011;11967;50.852;4.400;2023-05-07T07:20:32;8.63;;;3.70;;
23578;SDS011;11967;50.852;4.400;2023-05-07T07:23:16;9.88;;;5.00;;
23578;SDS011;11967;50.852;4.400;2023-05-07T07:25:41;11.98;;;5.20;;
23578;SDS011;11967;50.852;4.400;2023-05-07T07:28:07;16.70;;;4.38;;
23578;SDS011;11967;50.852;4.400;2023-05-07T07:30:34;13.38;;;4.20;;
23578;SDS011;11967;50.852;4.400;2023-05-07T07:33:05;8.65;;;3.97;;
23578;SDS011;11967;50.852;4.400;2023-05-07T07:35:32;9.63;;;3.78;;
23578;SDS011;11967;50.852;4.400;2023-05-07T07:37:58;7.40;;;3.30;;
23578;SDS011;11967;50.852;4.400;2023-05-07T07:40:23;9.20;;;3.33;;
23578;SDS011;11967;50.852;4.400;2023-05-07T07:42:50;9.73;;;3.47;;
23578;SDS011;11967;50.852;4.400;2023-05-07T07:45:18;7.30;;;3.08;;
23578;SDS011;11967;50.852;4.400;2023-05-07T07:47:44;7.30;;;2.97;;
23578;SDS011;11967;50.852;4.400;2023-05-07T07:50:10;8.10;;;3.03;;
23578;SDS011;11967;50.852;4.400;2023-05-07T07:52:36;7.18;;;3.00;;
23578;SDS011;11967;50.852;4.400;2023-05-07T07:55:01;7.60;;;3.10;;
23578;SDS011;11967;50.852;4.400;2023-05-07T07:57:27;9.07;;;3.38;;
23578;SDS011;11967;50.852;4.400;2023-05-07T07:59:53;7.32;;;2.83;;
23578;SDS011;11967;50.852;4.400;2023-05-07T08:02:20;6.93;;;2.97;;
23578;SDS011;11967;50.852;4.400;2023-05-07T08:04:45;9.10;;;3.35;;
23578;SDS011;11967;50.852;4.400;2023-05-07T08:07:11;7.82;;;3.08;;
23578;SDS011;11967;50.852;4.400;2023-05-07T08:09:38;9.48;;;3.00;;
23578;SDS011;11967;50.852;4.400;2023-05-07T08:12:04;28.00;;;4.53;;
23578;SDS011;11967;50.852;4.400;2023-05-07T08:14:31;13.50;;;2.97;;
23578;SDS011;11967;50.852;4.400;2023-05-07T08:16:56;8.65;;;3.63;;
23578;SDS011;11967;50.852;4.400;2023-05-07T08:19:22;12.60;;;3.20;;
23578;SDS011;11967;50.852;4.400;2023-05-07T08:21:48;9.30;;;3.28;;
23578;SDS011;11967;50.852;4.400;2023-05-07T08:24:14;7.13;;;3.20;;
23578;SDS011;11967;50.852;4.400;2023-05-07T08:26:40;6.80;;;3.25;;
23578;SDS011;11967;50.852;4.400;2023-05-07T08:29:06;6.05;;;2.90;;
23578;SDS011;11967;50.852;4.400;2023-05-07T08:31:32;7.47;;;3.45;;
23578;SDS011;11967;50.852;4.400;2023-05-07T08:33:57;7.13;;;3.28;;
23578;SDS011;11967;50.852;4.400;2023-05-07T08:36:23;6.57;;;2.80;;
23578;SDS011;11967;50.852;4.400;2023-05-07T08:38:51;9.02;;;3.15;;
23578;SDS011;11967;50.852;4.400;2023-05-07T08:41:18;5.00;;;2.72;;
23578;SDS011;11967;50.852;4.400;2023-05-07T08:43:47;7.90;;;2.55;;
23578;SDS011;11967;50.852;4.400;2023-05-07T08:46:21;7.05;;;2.80;;
23578;SDS011;11967;50.852;4.400;2023-05-07T08:48:48;8.40;;;3.38;;
23578;SDS011;11967;50.852;4.400;2023-05-07T08:51:16;6.30;;;2.95;;
23578;SDS011;11967;50.852;4.400;2023-05-07T08:53:43;9.55;;;3.55;;
23578;SDS011;11967;50.852;4.400;2023-05-07T08:56:09;5.75;;;3.00;;
23578;SDS011;11967;50.852;4.400;2023-05-07T08:58:35;9.73;;;3.45;;
23578;SDS011;11967;50.852;4.400;2023-05-07T09:01:02;15.50;;;9.63;;
23578;SDS011;11967;50.852;4.400;2023-05-07T09:03:32;9.30;;;4.50;;
23578;SDS011;11967;50.852;4.400;2023-05-07T09:05:58;11.48;;;4.63;;
23578;SDS011;11967;50.852;4.400;2023-05-07T09:08:27;7.82;;;4.30;;
23578;SDS011;11967;50.852;4.400;2023-05-07T09:10:53;9.90;;;4.68;;
23578;SDS011;11967;50.852;4.400;2023-05-07T09:13:19;7.28;;;4.38;;
23578;SDS011;11967;50.852;4.400;2023-05-07T09:15:45;6.53;;;3.95;;
23578;SDS011;11967;50.852;4.400;2023-05-07T09:18:14;7.50;;;4.35;;
23578;SDS011;11967;50.852;4.400;2023-05-07T09:20:41;6.75;;;4.28;;
23578;SDS011;11967;50.852;4.400;2023-05-07T09:23:08;6.72;;;4.15;;
23578;SDS011;11967;50.852;4.400;2023-05-07T09:25:34;10.43;;;3.90;;
23578;SDS011;11967;50.852;4.400;2023-05-07T09:28:01;10.15;;;4.28;;
23578;SDS011;11967;50.852;4.400;2023-05-07T09:30:33;6.75;;;4.05;;
23578;SDS011;11967;50.852;4.400;2023-05-07T09:33:00;9.02;;;4.25;;
23578;SDS011;11967;50.852;4.400;2023-05-07T09:35:27;8.88;;;4.45;;
23578;SDS011;11967;50.852;4.400;2023-05-07T09:37:56;8.30;;;4.22;;
23578;SDS011;11967;50.852;4.400;2023-05-07T09:40:24;10.52;;;4.28;;
23578;SDS011;11967;50.852;4.400;2023-05-07T09:42:52;5.82;;;3.45;;
23578;SDS011;11967;50.852;4.400;2023-05-07T09:45:36;9.95;;;3.78;;
23578;SDS011;11967;50.852;4.400;2023-05-07T09:48:04;6.75;;;3.55;;
23578;SDS011;11967;50.852;4.400;2023-05-07T09:50:36;6.68;;;3.25;;
23578;SDS011;11967;50.852;4.400;2023-05-07T09:53:15;8.07;;;3.50;;
23578;SDS011;11967;50.852;4.400;2023-05-07T09:55:42;10.35;;;4.20;;
23578;SDS011;11967;50.852;4.400;2023-05-07T09:58:08;10.15;;;4.50;;
23578;SDS011;11967;50.852;4.400;2023-05-07T10:00:37;8.45;;;3.08;;
23578;SDS011;11967;50.852;4.400;2023-05-07T10:03:05;5.40;;;2.80;;
23578;SDS011;11967;50.852;4.400;2023-05-07T10:05:32;9.25;;;3.78;;
23578;SDS011;11967;50.852;4.400;2023-05-07T10:07:58;8.02;;;3.03;;
23578;SDS011;11967;50.852;4.400;2023-05-07T10:10:27;9.65;;;3.67;;
23578;SDS011;11967;50.852;4.400;2023-05-07T10:12:54;8.18;;;3.47;;
23578;SDS011;11967;50.852;4.400;2023-05-07T10:15:20;7.25;;;3.55;;
23578;SDS011;11967;50.852;4.400;2023-05-07T10:17:47;7.72;;;3.45;;
23578;SDS011;11967;50.852;4.400;2023-05-07T10:20:14;8.35;;;3.30;;
23578;SDS011;11967;50.852;4.400;2023-05-07T10:22:44;6.30;;;3.28;;
23578;SDS011;11967;50.852;4.400;2023-05-07T10:25:46;6.90;;;3.42;;
23578;SDS011;11967;50.852;4.400;2023-05-07T10:28:06;6.63;;;2.67;;
23578;SDS011;11967;50.852;4.400;2023-05-07T10:30:38;7.78;;;3.17;;
23578;SDS011;11967;50.852;4.400;2023-05-07T10:33:20;6.10;;;2.65;;
23578;SDS011;11967;50.852;4.400;2023-05-07T10:35:50;6.10;;;2.92;;
23578;SDS011;11967;50.852;4.400;2023-05-07T10:38:16;6.18;;;2.53;;
23578;SDS011;11967;50.852;4.400;2023-05-07T10:40:43;5.72;;;2.72;;
23578;SDS011;11967;50.852;4.400;2023-05-07T10:43:08;7.53;;;3.00;;
23578;SDS011;11967;50.852;4.400;2023-05-07T10:45:35;8.27;;;3.10;;
23578;SDS011;11967;50.852;4.400;2023-05-07T10:48:13;7.40;;;3.10;;
23578;SDS011;11967;50.852;4.400;2023-05-07T10:50:41;5.10;;;2.70;;
23578;SDS011;11967;50.852;4.400;2023-05-07T10:55:46;10.10;;;3.28;;
23578;SDS011;11967;50.852;4.400;2023-05-07T10:58:29;7.32;;;3.28;;
23578;SDS011;11967;50.852;4.400;2023-05-07T11:00:59;6.28;;;2.80;;
23578;SDS011;11967;50.852;4.400;2023-05-07T11:03:26;6.82;;;3.33;;
23578;SDS011;11967;50.852;4.400;2023-05-07T11:06:11;8.05;;;3.15;;
23578;SDS011;11967;50.852;4.400;2023-05-07T11:08:55;9.23;;;3.55;;
23578;SDS011;11967;50.852;4.400;2023-05-07T11:14:10;6.78;;;3.00;;
23578;SDS011;11967;50.852;4.400;2023-05-07T11:16:36;6.03;;;2.60;;
23578;SDS011;11967;50.852;4.400;2023-05-07T11:19:03;6.13;;;2.15;;
23578;SDS011;11967;50.852;4.400;2023-05-07T11:24:08;5.97;;;2.65;;
23578;SDS011;11967;50.852;4.400;2023-05-07T11:26:56;6.72;;;2.95;;
23578;SDS011;11967;50.852;4.400;2023-05-07T11:29:23;7.10;;;2.35;;
23578;SDS011;11967;50.852;4.400;2023-05-07T11:34:23;5.93;;;2.30;;
23578;SDS011;11967;50.852;4.400;2023-05-07T11:36:50;11.43;;;5.32;;
23578;SDS011;11967;50.852;4.400;2023-05-07T11:39:23;10.60;;;5.43;;
23578;SDS011;11967;50.852;4.400;2023-05-07T11:42:00;6.45;;;2.72;;
23578;SDS011;11967;50.852;4.400;2023-05-07T11:44:43;5.28;;;2.35;;
23578;SDS011;11967;50.852;4.400;2023-05-07T11:47:10;6.78;;;3.00;;
23578;SDS011;11967;50.852;4.400;2023-05-07T11:49:36;5.13;;;2.60;;
23578;SDS011;11967;50.852;4.400;2023-05-07T11:52:02;6.72;;;3.22;;
23578;SDS011;11967;50.852;4.400;2023-05-07T11:54:35;6.03;;;2.95;;
23578;SDS011;11967;50.852;4.400;2023-05-07T11:57:02;6.40;;;3.33;;
23578;SDS011;11967;50.852;4.400;2023-05-07T11:59:27;5.05;;;2.78;;
23578;SDS011;11967;50.852;4.400;2023-05-07T12:01:56;5.57;;;2.60;;
23578;SDS011;11967;50.852;4.400;2023-05-07T12:04:25;7.85;;;2.42;;
23578;SDS011;11967;50.852;4.400;2023-05-07T12:06:53;3.50;;;2.28;;
23578;SDS011;11967;50.852;4.400;2023-05-07T12:09:21;7.55;;;2.92;;
23578;SDS011;11967;50.852;4.400;2023-05-07T12:11:46;7.47;;;2.30;;
23578;SDS011;11967;50.852;4.400;2023-05-07T12:14:12;5.40;;;2.33;;
23578;SDS011;11967;50.852;4.400;2023-05-07T12:16:40;4.00;;;2.40;;
23578;SDS011;11967;50.852;4.400;2023-05-07T12:19:07;4.28;;;1.98;;
23578;SDS011;11967;50.852;4.400;2023-05-07T12:21:34;3.60;;;2.30;;
23578;SDS011;11967;50.852;4.400;2023-05-07T12:24:00;6.47;;;2.35;;
23578;SDS011;11967;50.852;4.400;2023-05-07T12:26:26;6.82;;;2.63;;
23578;SDS011;11967;50.852;4.400;2023-05-07T12:28:52;3.50;;;2.05;;
23578;SDS011;11967;50.852;4.400;2023-05-07T12:31:18;3.33;;;2.10;;
23578;SDS011;11967;50.852;4.400;2023-05-07T12:33:43;3.55;;;2.30;;
23578;SDS011;11967;50.852;4.400;2023-05-07T12:36:11;5.40;;;2.65;;
23578;SDS011;11967;50.852;4.400;2023-05-07T12:38:40;4.22;;;2.42;;
23578;SDS011;11967;50.852;4.400;2023-05-07T12:41:06;4.65;;;2.47;;
23578;SDS011;11967;50.852;4.400;2023-05-07T12:43:33;4.47;;;2.88;;
23578;SDS011;11967;50.852;4.400;2023-05-07T12:46:00;4.65;;;2.75;;
23578;SDS011;11967;50.852;4.400;2023-05-07T12:48:28;5.55;;;2.95;;
23578;SDS011;11967;50.852;4.400;2023-05-07T12:50:54;5.45;;;2.83;;
23578;SDS011;11967;50.852;4.400;2023-05-07T12:53:21;5.60;;;3.10;;
23578;SDS011;11967;50.852;4.400;2023-05-07T12:55:49;4.97;;;3.50;;
23578;SDS011;11967;50.852;4.400;2023-05-07T12:58:20;4.57;;;2.92;;
23578;SDS011;11967;50.852;4.400;2023-05-07T13:00:50;5.82;;;3.03;;
23578;SDS011;11967;50.852;4.400;2023-05-07T13:05:53;7.38;;;5.22;;
23578;SDS011;11967;50.852;4.400;2023-05-07T13:08:24;6.70;;;5.32;;
23578;SDS011;11967;50.852;4.400;2023-05-07T13:10:50;5.60;;;4.97;;
23578;SDS011;11967;50.852;4.400;2023-05-07T13:13:16;7.43;;;5.30;;
23578;SDS011;11967;50.852;4.400;2023-05-07T13:15:42;7.88;;;5.70;;
23578;SDS011;11967;50.852;4.400;2023-05-07T13:18:07;6.63;;;5.20;;
23578;SDS011;11967;50.852;4.400;2023-05-07T13:20:35;7.13;;;5.53;;
23578;SDS011;11967;50.852;4.400;2023-05-07T13:23:01;9.30;;;5.65;;
23578;SDS011;11967;50.852;4.400;2023-05-07T13:25:27;9.10;;;6.43;;
23578;SDS011;11967;50.852;4.400;2023-05-07T13:27:52;9.43;;;6.70;;
23578;SDS011;11967;50.852;4.400;2023-05-07T13:30:18;11.32;;;7.63;;
23578;SDS011;11967;50.852;4.400;2023-05-07T13:32:44;9.38;;;6.63;;
23578;SDS011;11967;50.852;4.400;2023-05-07T13:35:10;8.82;;;6.93;;
23578;SDS011;11967;50.852;4.400;2023-05-07T13:37:36;8.57;;;6.30;;
23578;SDS011;11967;50.852;4.400;2023-05-07T13:40:01;11.32;;;7.50;;
23578;SDS011;11967;50.852;4.400;2023-05-07T13:42:27;10.25;;;7.43;;
23578;SDS011;11967;50.852;4.400;2023-05-07T13:44:53;10.68;;;7.63;;
23578;SDS011;11967;50.852;4.400;2023-05-07T13:47:19;9.18;;;7.55;;
23578;SDS011;11967;50.852;4.400;2023-05-07T13:49:44;10.77;;;8.82;;
23578;SDS011;11967;50.852;4.400;2023-05-07T13:52:10;10.13;;;8.45;;
23578;SDS011;11967;50.852;4.400;2023-05-07T13:54:36;9.93;;;8.02;;
23578;SDS011;11967;50.852;4.400;2023-05-07T13:57:01;11.02;;;9.27;;
23578;SDS011;11967;50.852;4.400;2023-05-07T13:59:27;12.60;;;9.35;;
23578;SDS011;11967;50.852;4.400;2023-05-07T14:01:53;12.20;;;8.90;;
23578;SDS011;11967;50.852;4.400;2023-05-07T14:04:19;11.48;;;8.73;;
23578;SDS011;11967;50.852;4.400;2023-05-07T14:06:45;11.13;;;9.43;;
23578;SDS011;11967;50.852;4.400;2023-05-07T14:09:11;11.18;;;9.07;;
23578;SDS011;11967;50.852;4.400;2023-05-07T14:11:38;11.77;;;9.27;;
23578;SDS011;11967;50.852;4.400;2023-05-07T14:14:04;11.90;;;9.75;;
23578;SDS011;11967;50.852;4.400;2023-05-07T14:16:30;12.88;;;10.38;;
23578;SDS011;11967;50.852;4.400;2023-05-07T14:18:56;14.63;;;11.13;;
23578;SDS011;11967;50.852;4.400;2023-05-07T14:21:21;14.32;;;11.20;;
23578;SDS011;11967;50.852;4.400;2023-05-07T14:23:47;15.65;;;11.48;;
23578;SDS011;11967;50.852;4.400;2023-05-07T14:26:13;14.48;;;12.23;;
23578;SDS011;11967;50.852;4.400;2023-05-07T14:28:39;16.50;;;13.48;;
23578;SDS011;11967;50.852;4.400;2023-05-07T14:31:06;14.38;;;11.50;;
23578;SDS011;11967;50.852;4.400;2023-05-07T14:33:31;12.38;;;10.15;;
23578;SDS011;11967;50.852;4.400;2023-05-07T14:35:57;12.13;;;10.23;;
23578;SDS011;11967;50.852;4.400;2023-05-07T14:38:23;14.15;;;10.23;;
23578;SDS011;11967;50.852;4.400;2023-05-07T14:40:48;15.10;;;13.02;;
23578;SDS011;11967;50.852;4.400;2023-05-07T14:43:15;16.52;;;13.18;;
23578;SDS011;11967;50.852;4.400;2023-05-07T14:45:40;11.75;;;10.48;;
23578;SDS011;11967;50.852;4.400;2023-05-07T14:48:06;12.93;;;10.68;;
23578;SDS011;11967;50.852;4.400;2023-05-07T14:50:34;16.73;;;11.02;;
23578;SDS011;11967;50.852;4.400;2023-05-07T14:53:03;12.48;;;11.18;;